sensor_id;sensor_type;location;lat;lon;timestamp;temperature;humidity
6988;DHT22;3534;49.960;8.018;2022-10-17T00:00:39;15.30;99.90
6988;DHT22;3534;49.960;8.018;2022-10-17T00:03:06;15.30;99.90
6988;DHT22;3534;49.960;8.018;2022-10-17T00:05:33;15.20;99.90
6988;DHT22;3534;49.960;8.018;2022-10-17T00:07:59;15.20;99.90
6988;DHT22;3534;49.960;8.018;2022-10-17T00:10:26;15.20;99.90
6988;DHT22;3534;49.960;8.018;2022-10-17T00:12:53;15.20;99.90
6988;DHT22;3534;49.960;8.018;2022-10-17T00:15:20;15.20;99.90
6988;DHT22;3534;49.960;8.018;2022-10-17T00:17:48;15.20;99.90
6988;DHT22;3534;49.960;8.018;2022-10-17T00:20:16;15.20;99.90
6988;DHT22;3534;49.960;8.018;2022-10-17T00:22:42;15.20;99.90
6988;DHT22;3534;49.960;8.018;2022-10-17T00:25:10;15.20;99.90
6988;DHT22;3534;49.960;8.018;2022-10-17T00:27:37;15.20;99.90
6988;DHT22;3534;49.960;8.018;2022-10-17T00:30:06;15.30;99.90
6988;DHT22;3534;49.960;8.018;2022-10-17T00:32:33;15.20;99.90
6988;DHT22;3534;49.960;8.018;2022-10-17T00:35:02;15.30;99.90
6988;DHT22;3534;49.960;8.018;2022-10-17T00:37:29;15.30;99.90
6988;DHT22;3534;49.960;8.018;2022-10-17T00:39:57;15.30;99.90
6988;DHT22;3534;49.960;8.018;2022-10-17T00:42:23;15.20;99.90
6988;DHT22;3534;49.960;8.018;2022-10-17T00:44:58;15.20;99.90
6988;DHT22;3534;49.960;8.018;2022-10-17T00:47:25;15.20;99.90
6988;DHT22;3534;49.960;8.018;2022-10-17T00:49:53;15.20;99.90
6988;DHT22;3534;49.960;8.018;2022-10-17T00:52:23;15.20;99.90
6988;DHT22;3534;49.960;8.018;2022-10-17T00:54:55;15.20;99.90
6988;DHT22;3534;49.960;8.018;2022-10-17T00:57:23;15.10;99.90
6988;DHT22;3534;49.960;8.018;2022-10-17T00:59:52;15.10;99.90
6988;DHT22;3534;49.960;8.018;2022-10-17T01:02:20;15.10;99.90
6988;DHT22;3534;49.960;8.018;2022-10-17T01:04:49;15.10;99.90
6988;DHT22;3534;49.960;8.018;2022-10-17T01:07:17;15.10;99.90
6988;DHT22;3534;49.960;8.018;2022-10-17T01:09:46;15.10;99.90
6988;DHT22;3534;49.960;8.018;2022-10-17T01:12:17;15.10;99.90
6988;DHT22;3534;49.960;8.018;2022-10-17T01:14:57;15.10;99.90
6988;DHT22;3534;49.960;8.018;2022-10-17T01:17:33;15.10;99.90
6988;DHT22;3534;49.960;8.018;2022-10-17T01:20:24;15.10;99.90
6988;DHT22;3534;49.960;8.018;2022-10-17T01:23:05;15.10;99.90
6988;DHT22;3534;49.960;8.018;2022-10-17T01:25:46;15.00;99.90
6988;DHT22;3534;49.960;8.018;2022-10-17T01:28:30;15.00;99.90
6988;DHT22;3534;49.960;8.018;2022-10-17T01:31:03;15.00;99.90
6988;DHT22;3534;49.960;8.018;2022-10-17T01:33:42;15.00;99.90
6988;DHT22;3534;49.960;8.018;2022-10-17T01:36:17;15.00;99.90
6988;DHT22;3534;49.960;8.018;2022-10-17T01:38:49;14.90;99.90
6988;DHT22;3534;49.960;8.018;2022-10-17T01:41:23;15.00;99.90
6988;DHT22;3534;49.960;8.018;2022-10-17T01:43:56;15.00;99.90
6988;DHT22;3534;49.960;8.018;2022-10-17T01:46:29;14.90;99.90
6988;DHT22;3534;49.960;8.018;2022-10-17T01:48:59;14.90;99.90
6988;DHT22;3534;49.960;8.018;2022-10-17T01:51:30;14.90;99.90
6988;DHT22;3534;49.960;8.018;2022-10-17T01:54:04;14.90;99.90
6988;DHT22;3534;49.960;8.018;2022-10-17T01:56:34;14.90;99.90
6988;DHT22;3534;49.960;8.018;2022-10-17T01:59:06;14.80;99.90
6988;DHT22;3534;49.960;8.018;2022-10-17T02:01:38;14.80;99.90
6988;DHT22;3534;49.960;8.018;2022-10-17T02:04:09;14.80;99.90
6988;DHT22;3534;49.960;8.018;2022-10-17T02:06:37;14.80;99.90
6988;DHT22;3534;49.960;8.018;2022-10-17T02:09:15;14.80;99.90
6988;DHT22;3534;49.960;8.018;2022-10-17T02:11:51;14.80;99.90
6988;DHT22;3534;49.960;8.018;2022-10-17T02:14:28;14.70;99.90
6988;DHT22;3534;49.960;8.018;2022-10-17T02:17:08;14.70;99.90
6988;DHT22;3534;49.960;8.018;2022-10-17T02:19:49;14.70;99.90
6988;DHT22;3534;49.960;8.018;2022-10-17T02:22:26;14.70;99.90
6988;DHT22;3534;49.960;8.018;2022-10-17T02:24:59;14.70;99.90
6988;DHT22;3534;49.960;8.018;2022-10-17T02:27:33;14.70;99.90
6988;DHT22;3534;49.960;8.018;2022-10-17T02:30:07;14.70;99.90
6988;DHT22;3534;49.960;8.018;2022-10-17T02:32:40;14.70;99.90
6988;DHT22;3534;49.960;8.018;2022-10-17T02:35:10;14.60;99.90
6988;DHT22;3534;49.960;8.018;2022-10-17T02:37:38;14.60;99.90
6988;DHT22;3534;49.960;8.018;2022-10-17T02:40:07;14.60;99.90
6988;DHT22;3534;49.960;8.018;2022-10-17T02:42:36;14.60;99.90
6988;DHT22;3534;49.960;8.018;2022-10-17T02:45:06;14.60;99.90
6988;DHT22;3534;49.960;8.018;2022-10-17T02:47:38;14.60;99.90
6988;DHT22;3534;49.960;8.018;2022-10-17T02:50:09;14.60;99.90
6988;DHT22;3534;49.960;8.018;2022-10-17T02:52:38;14.60;99.90
6988;DHT22;3534;49.960;8.018;2022-10-17T02:55:11;14.60;99.90
6988;DHT22;3534;49.960;8.018;2022-10-17T02:57:43;14.60;99.90
6988;DHT22;3534;49.960;8.018;2022-10-17T03:00:12;14.50;99.90
6988;DHT22;3534;49.960;8.018;2022-10-17T03:02:42;14.60;99.90
6988;DHT22;3534;49.960;8.018;2022-10-17T03:05:11;14.50;99.90
6988;DHT22;3534;49.960;8.018;2022-10-17T03:07:38;14.50;99.90
6988;DHT22;3534;49.960;8.018;2022-10-17T03:10:05;14.50;99.90
6988;DHT22;3534;49.960;8.018;2022-10-17T03:12:32;14.50;99.90
6988;DHT22;3534;49.960;8.018;2022-10-17T03:14:59;14.50;99.90
6988;DHT22;3534;49.960;8.018;2022-10-17T03:17:26;14.50;99.90
6988;DHT22;3534;49.960;8.018;2022-10-17T03:19:54;14.50;99.90
6988;DHT22;3534;49.960;8.018;2022-10-17T03:22:20;14.50;99.90
6988;DHT22;3534;49.960;8.018;2022-10-17T03:24:47;14.50;99.90
6988;DHT22;3534;49.960;8.018;2022-10-17T03:27:14;14.50;99.90
6988;DHT22;3534;49.960;8.018;2022-10-17T03:29:41;14.50;99.90
6988;DHT22;3534;49.960;8.018;2022-10-17T03:32:07;14.50;99.90
6988;DHT22;3534;49.960;8.018;2022-10-17T03:34:34;14.50;99.90
6988;DHT22;3534;49.960;8.018;2022-10-17T03:37:02;14.50;99.90
6988;DHT22;3534;49.960;8.018;2022-10-17T03:39:29;14.50;99.90
6988;DHT22;3534;49.960;8.018;2022-10-17T03:41:56;14.50;99.90
6988;DHT22;3534;49.960;8.018;2022-10-17T03:44:23;14.50;99.90
6988;DHT22;3534;49.960;8.018;2022-10-17T03:46:49;14.50;99.90
6988;DHT22;3534;49.960;8.018;2022-10-17T03:49:16;14.40;99.90
6988;DHT22;3534;49.960;8.018;2022-10-17T03:51:43;14.40;99.90
6988;DHT22;3534;49.960;8.018;2022-10-17T03:54:11;14.40;99.90
6988;DHT22;3534;49.960;8.018;2022-10-17T03:56:37;14.40;99.90
6988;DHT22;3534;49.960;8.018;2022-10-17T03:59:04;14.40;99.90
6988;DHT22;3534;49.960;8.018;2022-10-17T04:01:31;14.40;99.90
6988;DHT22;3534;49.960;8.018;2022-10-17T04:03:58;14.40;99.90
6988;DHT22;3534;49.960;8.018;2022-10-17T04:06:24;14.30;99.90
6988;DHT22;3534;49.960;8.018;2022-10-17T04:08:51;14.30;99.90
6988;DHT22;3534;49.960;8.018;2022-10-17T04:11:20;14.30;99.90
6988;DHT22;3534;49.960;8.018;2022-10-17T04:13:47;14.40;99.90
6988;DHT22;3534;49.960;8.018;2022-10-17T04:16:15;14.30;99.90
6988;DHT22;3534;49.960;8.018;2022-10-17T04:18:42;14.40;99.90
6988;DHT22;3534;49.960;8.018;2022-10-17T04:21:09;14.40;99.90
6988;DHT22;3534;49.960;8.018;2022-10-17T04:23:37;14.40;99.90
6988;DHT22;3534;49.960;8.018;2022-10-17T04:26:05;14.30;99.90
6988;DHT22;3534;49.960;8.018;2022-10-17T04:28:33;14.20;99.90
6988;DHT22;3534;49.960;8.018;2022-10-17T04:31:01;14.30;99.90
6988;DHT22;3534;49.960;8.018;2022-10-17T04:33:29;14.20;99.90
6988;DHT22;3534;49.960;8.018;2022-10-17T04:35:57;14.20;99.90
6988;DHT22;3534;49.960;8.018;2022-10-17T04:38:25;14.20;99.90
6988;DHT22;3534;49.960;8.018;2022-10-17T04:40:53;14.20;99.90
6988;DHT22;3534;49.960;8.018;2022-10-17T04:43:19;14.30;99.90
6988;DHT22;3534;49.960;8.018;2022-10-17T04:45:47;14.30;99.90
6988;DHT22;3534;49.960;8.018;2022-10-17T04:48:14;14.30;99.90
6988;DHT22;3534;49.960;8.018;2022-10-17T04:50:41;14.30;99.90
6988;DHT22;3534;49.960;8.018;2022-10-17T04:53:18;14.20;99.90
6988;DHT22;3534;49.960;8.018;2022-10-17T04:55:44;14.20;99.90
6988;DHT22;3534;49.960;8.018;2022-10-17T04:58:11;14.10;99.90
6988;DHT22;3534;49.960;8.018;2022-10-17T05:00:38;14.20;99.90
6988;DHT22;3534;49.960;8.018;2022-10-17T05:03:06;14.20;99.90
6988;DHT22;3534;49.960;8.018;2022-10-17T05:05:32;14.20;99.90
6988;DHT22;3534;49.960;8.018;2022-10-17T05:07:59;14.10;99.90
6988;DHT22;3534;49.960;8.018;2022-10-17T05:10:26;14.10;99.90
6988;DHT22;3534;49.960;8.018;2022-10-17T05:12:53;14.10;99.90
6988;DHT22;3534;49.960;8.018;2022-10-17T05:15:19;14.10;99.90
6988;DHT22;3534;49.960;8.018;2022-10-17T05:17:46;14.10;99.90
6988;DHT22;3534;49.960;8.018;2022-10-17T05:20:14;14.10;99.90
6988;DHT22;3534;49.960;8.018;2022-10-17T05:22:41;14.10;99.90
6988;DHT22;3534;49.960;8.018;2022-10-17T05:25:08;14.00;99.90
6988;DHT22;3534;49.960;8.018;2022-10-17T05:27:35;14.00;99.90
6988;DHT22;3534;49.960;8.018;2022-10-17T05:30:03;14.00;99.90
6988;DHT22;3534;49.960;8.018;2022-10-17T05:32:29;14.00;99.90
6988;DHT22;3534;49.960;8.018;2022-10-17T05:34:56;14.00;99.90
6988;DHT22;3534;49.960;8.018;2022-10-17T05:37:24;14.00;99.90
6988;DHT22;3534;49.960;8.018;2022-10-17T05:39:51;14.00;99.90
6988;DHT22;3534;49.960;8.018;2022-10-17T05:42:18;14.00;99.90
6988;DHT22;3534;49.960;8.018;2022-10-17T05:44:45;14.00;99.90
6988;DHT22;3534;49.960;8.018;2022-10-17T05:47:11;14.00;99.90
6988;DHT22;3534;49.960;8.018;2022-10-17T05:49:38;14.00;99.90
6988;DHT22;3534;49.960;8.018;2022-10-17T05:52:05;14.00;99.90
6988;DHT22;3534;49.960;8.018;2022-10-17T05:54:33;14.00;99.90
6988;DHT22;3534;49.960;8.018;2022-10-17T05:56:59;13.90;99.90
6988;DHT22;3534;49.960;8.018;2022-10-17T05:59:27;14.00;99.90
6988;DHT22;3534;49.960;8.018;2022-10-17T06:01:53;14.00;99.90
6988;DHT22;3534;49.960;8.018;2022-10-17T06:04:20;14.00;99.90
6988;DHT22;3534;49.960;8.018;2022-10-17T06:06:47;14.00;99.90
6988;DHT22;3534;49.960;8.018;2022-10-17T06:09:14;14.00;99.90
6988;DHT22;3534;49.960;8.018;2022-10-17T06:11:42;14.00;99.90
6988;DHT22;3534;49.960;8.018;2022-10-17T06:14:08;14.00;99.90
6988;DHT22;3534;49.960;8.018;2022-10-17T06:16:35;14.00;99.90
6988;DHT22;3534;49.960;8.018;2022-10-17T06:19:02;14.00;99.90
6988;DHT22;3534;49.960;8.018;2022-10-17T06:21:29;14.00;99.90
6988;DHT22;3534;49.960;8.018;2022-10-17T06:23:59;14.00;99.90
6988;DHT22;3534;49.960;8.018;2022-10-17T06:26:25;14.00;99.90
6988;DHT22;3534;49.960;8.018;2022-10-17T06:28:54;14.00;99.90
6988;DHT22;3534;49.960;8.018;2022-10-17T06:31:21;14.00;99.90
6988;DHT22;3534;49.960;8.018;2022-10-17T06:33:47;14.00;99.90
6988;DHT22;3534;49.960;8.018;2022-10-17T06:36:14;14.00;99.90
6988;DHT22;3534;49.960;8.018;2022-10-17T06:38:41;14.00;99.90
6988;DHT22;3534;49.960;8.018;2022-10-17T06:41:11;14.00;99.90
6988;DHT22;3534;49.960;8.018;2022-10-17T06:43:40;14.00;99.90
6988;DHT22;3534;49.960;8.018;2022-10-17T06:46:09;14.00;99.90
6988;DHT22;3534;49.960;8.018;2022-10-17T06:48:35;13.90;99.90
6988;DHT22;3534;49.960;8.018;2022-10-17T06:51:04;13.90;99.90
6988;DHT22;3534;49.960;8.018;2022-10-17T06:53:32;13.90;99.90
6988;DHT22;3534;49.960;8.018;2022-10-17T06:56:00;13.90;99.90
6988;DHT22;3534;49.960;8.018;2022-10-17T06:58:28;13.90;99.90
6988;DHT22;3534;49.960;8.018;2022-10-17T07:00:58;13.90;99.90
6988;DHT22;3534;49.960;8.018;2022-10-17T07:03:26;14.00;99.90
6988;DHT22;3534;49.960;8.018;2022-10-17T07:05:54;13.90;99.90
6988;DHT22;3534;49.960;8.018;2022-10-17T07:08:21;13.90;99.90
6988;DHT22;3534;49.960;8.018;2022-10-17T07:10:48;13.90;99.90
6988;DHT22;3534;49.960;8.018;2022-10-17T07:13:15;13.90;99.90
6988;DHT22;3534;49.960;8.018;2022-10-17T07:15:42;13.90;99.90
6988;DHT22;3534;49.960;8.018;2022-10-17T07:18:09;13.90;99.90
6988;DHT22;3534;49.960;8.018;2022-10-17T07:20:37;14.00;99.90
6988;DHT22;3534;49.960;8.018;2022-10-17T07:23:05;14.00;99.90
6988;DHT22;3534;49.960;8.018;2022-10-17T07:25:32;14.00;99.90
6988;DHT22;3534;49.960;8.018;2022-10-17T07:27:58;14.00;99.90
6988;DHT22;3534;49.960;8.018;2022-10-17T07:30:26;14.00;99.90
6988;DHT22;3534;49.960;8.018;2022-10-17T07:32:53;14.10;99.90
6988;DHT22;3534;49.960;8.018;2022-10-17T07:35:20;14.20;99.90
6988;DHT22;3534;49.960;8.018;2022-10-17T07:37:48;14.20;99.90
6988;DHT22;3534;49.960;8.018;2022-10-17T07:40:15;14.30;99.90
6988;DHT22;3534;49.960;8.018;2022-10-17T07:42:42;14.30;99.90
6988;DHT22;3534;49.960;8.018;2022-10-17T07:45:09;14.40;99.90
6988;DHT22;3534;49.960;8.018;2022-10-17T07:47:36;14.30;99.90
6988;DHT22;3534;49.960;8.018;2022-10-17T07:50:04;14.40;99.90
6988;DHT22;3534;49.960;8.018;2022-10-17T07:52:30;14.50;99.90
6988;DHT22;3534;49.960;8.018;2022-10-17T07:54:59;14.50;99.90
6988;DHT22;3534;49.960;8.018;2022-10-17T07:57:25;14.50;99.90
6988;DHT22;3534;49.960;8.018;2022-10-17T07:59:52;14.60;99.90
6988;DHT22;3534;49.960;8.018;2022-10-17T08:02:21;14.50;99.90
6988;DHT22;3534;49.960;8.018;2022-10-17T08:04:48;14.50;99.90
6988;DHT22;3534;49.960;8.018;2022-10-17T08:07:15;14.50;99.90
6988;DHT22;3534;49.960;8.018;2022-10-17T08:09:42;14.40;99.90
6988;DHT22;3534;49.960;8.018;2022-10-17T08:12:10;14.40;99.90
6988;DHT22;3534;49.960;8.018;2022-10-17T08:14:39;14.40;99.90
6988;DHT22;3534;49.960;8.018;2022-10-17T08:17:05;14.40;99.90
6988;DHT22;3534;49.960;8.018;2022-10-17T08:19:32;14.40;99.90
6988;DHT22;3534;49.960;8.018;2022-10-17T08:21:59;14.40;99.90
6988;DHT22;3534;49.960;8.018;2022-10-17T08:24:26;14.40;99.90
6988;DHT22;3534;49.960;8.018;2022-10-17T08:26:53;14.50;99.90
6988;DHT22;3534;49.960;8.018;2022-10-17T08:29:23;14.60;99.90
6988;DHT22;3534;49.960;8.018;2022-10-17T08:31:50;14.70;99.90
6988;DHT22;3534;49.960;8.018;2022-10-17T08:34:17;14.80;99.90
6988;DHT22;3534;49.960;8.018;2022-10-17T08:36:44;14.80;99.90
6988;DHT22;3534;49.960;8.018;2022-10-17T08:39:11;14.90;99.90
6988;DHT22;3534;49.960;8.018;2022-10-17T08:41:52;15.00;99.90
6988;DHT22;3534;49.960;8.018;2022-10-17T08:44:37;15.00;99.90
6988;DHT22;3534;49.960;8.018;2022-10-17T08:47:09;15.10;99.90
6988;DHT22;3534;49.960;8.018;2022-10-17T08:49:40;15.10;99.90
6988;DHT22;3534;49.960;8.018;2022-10-17T08:52:15;15.20;99.90
6988;DHT22;3534;49.960;8.018;2022-10-17T08:54:45;15.30;99.90
6988;DHT22;3534;49.960;8.018;2022-10-17T08:57:14;15.30;99.90
6988;DHT22;3534;49.960;8.018;2022-10-17T08:59:44;15.30;99.90
6988;DHT22;3534;49.960;8.018;2022-10-17T09:02:23;15.30;99.90
6988;DHT22;3534;49.960;8.018;2022-10-17T09:05:03;15.30;99.90
6988;DHT22;3534;49.960;8.018;2022-10-17T09:07:39;15.30;99.90
6988;DHT22;3534;49.960;8.018;2022-10-17T09:10:12;15.40;99.90
6988;DHT22;3534;49.960;8.018;2022-10-17T09:12:51;15.50;99.90
6988;DHT22;3534;49.960;8.018;2022-10-17T09:15:37;15.50;99.90
6988;DHT22;3534;49.960;8.018;2022-10-17T09:18:11;15.60;99.90
6988;DHT22;3534;49.960;8.018;2022-10-17T09:20:43;15.60;99.90
6988;DHT22;3534;49.960;8.018;2022-10-17T09:23:14;15.70;99.90
6988;DHT22;3534;49.960;8.018;2022-10-17T09:25:43;15.70;99.90
6988;DHT22;3534;49.960;8.018;2022-10-17T09:28:14;15.80;99.90
6988;DHT22;3534;49.960;8.018;2022-10-17T09:30:45;15.80;99.90
6988;DHT22;3534;49.960;8.018;2022-10-17T09:33:14;15.90;99.90
6988;DHT22;3534;49.960;8.018;2022-10-17T09:35:43;15.90;99.90
6988;DHT22;3534;49.960;8.018;2022-10-17T09:38:15;16.00;99.90
6988;DHT22;3534;49.960;8.018;2022-10-17T09:40:43;16.00;99.90
6988;DHT22;3534;49.960;8.018;2022-10-17T09:43:12;16.10;99.90
6988;DHT22;3534;49.960;8.018;2022-10-17T09:45:47;16.20;99.90
6988;DHT22;3534;49.960;8.018;2022-10-17T09:48:25;16.20;99.90
6988;DHT22;3534;49.960;8.018;2022-10-17T09:50:55;16.20;99.90
6988;DHT22;3534;49.960;8.018;2022-10-17T09:53:24;16.30;99.90
6988;DHT22;3534;49.960;8.018;2022-10-17T09:55:54;16.40;99.90
6988;DHT22;3534;49.960;8.018;2022-10-17T09:58:22;16.40;99.90
6988;DHT22;3534;49.960;8.018;2022-10-17T10:00:50;16.50;99.90
6988;DHT22;3534;49.960;8.018;2022-10-17T10:03:18;16.50;99.90
6988;DHT22;3534;49.960;8.018;2022-10-17T10:06:00;16.60;99.90
6988;DHT22;3534;49.960;8.018;2022-10-17T10:08:29;16.70;99.90
6988;DHT22;3534;49.960;8.018;2022-10-17T10:10:58;16.70;99.90
6988;DHT22;3534;49.960;8.018;2022-10-17T10:13:27;16.80;99.90
6988;DHT22;3534;49.960;8.018;2022-10-17T10:16:16;16.90;99.90
6988;DHT22;3534;49.960;8.018;2022-10-17T10:18:44;17.00;99.90
6988;DHT22;3534;49.960;8.018;2022-10-17T10:21:12;17.00;99.90
6988;DHT22;3534;49.960;8.018;2022-10-17T10:23:40;17.10;99.90
6988;DHT22;3534;49.960;8.018;2022-10-17T10:26:20;17.20;99.90
6988;DHT22;3534;49.960;8.018;2022-10-17T10:28:54;17.20;99.90
6988;DHT22;3534;49.960;8.018;2022-10-17T10:31:30;17.30;99.90
6988;DHT22;3534;49.960;8.018;2022-10-17T10:34:00;17.40;99.90
6988;DHT22;3534;49.960;8.018;2022-10-17T10:36:45;17.40;99.90
6988;DHT22;3534;49.960;8.018;2022-10-17T10:39:30;17.50;99.90
6988;DHT22;3534;49.960;8.018;2022-10-17T10:41:58;17.70;99.90
6988;DHT22;3534;49.960;8.018;2022-10-17T10:44:27;17.80;99.90
6988;DHT22;3534;49.960;8.018;2022-10-17T10:47:18;18.00;99.90
6988;DHT22;3534;49.960;8.018;2022-10-17T10:49:46;18.10;99.90
6988;DHT22;3534;49.960;8.018;2022-10-17T10:52:21;18.10;99.90
6988;DHT22;3534;49.960;8.018;2022-10-17T10:54:54;18.20;99.90
6988;DHT22;3534;49.960;8.018;2022-10-17T10:57:25;18.30;99.90
6988;DHT22;3534;49.960;8.018;2022-10-17T10:59:59;18.40;99.90
6988;DHT22;3534;49.960;8.018;2022-10-17T11:02:35;18.50;99.90
6988;DHT22;3534;49.960;8.018;2022-10-17T11:05:11;18.70;99.90
6988;DHT22;3534;49.960;8.018;2022-10-17T11:07:42;19.00;99.90
6988;DHT22;3534;49.960;8.018;2022-10-17T11:10:13;19.20;99.90
6988;DHT22;3534;49.960;8.018;2022-10-17T11:12:45;19.30;99.90
6988;DHT22;3534;49.960;8.018;2022-10-17T11:15:19;19.60;99.90
6988;DHT22;3534;49.960;8.018;2022-10-17T11:17:54;19.80;99.90
6988;DHT22;3534;49.960;8.018;2022-10-17T11:20:32;20.10;99.90
6988;DHT22;3534;49.960;8.018;2022-10-17T11:23:10;20.30;99.90
6988;DHT22;3534;49.960;8.018;2022-10-17T11:25:39;20.60;99.90
6988;DHT22;3534;49.960;8.018;2022-10-17T11:28:12;20.80;99.90
6988;DHT22;3534;49.960;8.018;2022-10-17T11:30:44;21.00;99.90
6988;DHT22;3534;49.960;8.018;2022-10-17T11:33:18;21.30;99.90
6988;DHT22;3534;49.960;8.018;2022-10-17T11:35:46;21.50;99.90
6988;DHT22;3534;49.960;8.018;2022-10-17T11:38:18;21.60;99.90
6988;DHT22;3534;49.960;8.018;2022-10-17T11:40:49;21.80;99.90
6988;DHT22;3534;49.960;8.018;2022-10-17T11:43:19;21.90;99.90
6988;DHT22;3534;49.960;8.018;2022-10-17T11:45:51;21.90;99.90
6988;DHT22;3534;49.960;8.018;2022-10-17T11:48:24;22.00;99.90
6988;DHT22;3534;49.960;8.018;2022-10-17T11:50:59;22.20;99.90
6988;DHT22;3534;49.960;8.018;2022-10-17T11:53:42;22.40;99.90
6988;DHT22;3534;49.960;8.018;2022-10-17T11:56:11;22.80;99.90
6988;DHT22;3534;49.960;8.018;2022-10-17T11:58:42;23.20;99.90
6988;DHT22;3534;49.960;8.018;2022-10-17T12:01:20;23.60;99.90
6988;DHT22;3534;49.960;8.018;2022-10-17T12:04:03;23.90;99.90
6988;DHT22;3534;49.960;8.018;2022-10-17T12:06:41;24.20;99.90
6988;DHT22;3534;49.960;8.018;2022-10-17T12:09:19;24.40;99.90
6988;DHT22;3534;49.960;8.018;2022-10-17T12:11:51;24.60;99.90
6988;DHT22;3534;49.960;8.018;2022-10-17T12:14:40;24.90;99.90
6988;DHT22;3534;49.960;8.018;2022-10-17T12:17:30;25.10;99.90
6988;DHT22;3534;49.960;8.018;2022-10-17T12:20:26;25.20;99.90
6988;DHT22;3534;49.960;8.018;2022-10-17T12:22:57;25.20;99.90
6988;DHT22;3534;49.960;8.018;2022-10-17T12:25:26;25.30;99.90
6988;DHT22;3534;49.960;8.018;2022-10-17T12:28:10;25.40;99.90
6988;DHT22;3534;49.960;8.018;2022-10-17T12:30:49;25.40;99.90
6988;DHT22;3534;49.960;8.018;2022-10-17T12:33:19;25.40;99.90
6988;DHT22;3534;49.960;8.018;2022-10-17T12:35:49;25.30;99.90
6988;DHT22;3534;49.960;8.018;2022-10-17T12:38:22;25.20;99.90
6988;DHT22;3534;49.960;8.018;2022-10-17T12:40:59;25.00;99.90
6988;DHT22;3534;49.960;8.018;2022-10-17T12:43:56;24.80;99.90
6988;DHT22;3534;49.960;8.018;2022-10-17T12:46:50;24.70;99.90
6988;DHT22;3534;49.960;8.018;2022-10-17T12:49:40;24.60;99.90
6988;DHT22;3534;49.960;8.018;2022-10-17T12:52:29;24.50;99.90
6988;DHT22;3534;49.960;8.018;2022-10-17T12:55:16;24.50;99.90
6988;DHT22;3534;49.960;8.018;2022-10-17T12:57:57;24.60;99.90
6988;DHT22;3534;49.960;8.018;2022-10-17T13:00:32;24.80;99.90
6988;DHT22;3534;49.960;8.018;2022-10-17T13:03:10;25.10;99.90
6988;DHT22;3534;49.960;8.018;2022-10-17T13:05:40;25.30;99.90
6988;DHT22;3534;49.960;8.018;2022-10-17T13:08:17;25.60;99.90
6988;DHT22;3534;49.960;8.018;2022-10-17T13:10:47;25.80;99.90
6988;DHT22;3534;49.960;8.018;2022-10-17T13:13:18;26.00;99.90
6988;DHT22;3534;49.960;8.018;2022-10-17T13:15:46;26.20;99.90
6988;DHT22;3534;49.960;8.018;2022-10-17T13:18:19;26.30;99.90
6988;DHT22;3534;49.960;8.018;2022-10-17T13:20:54;26.50;99.90
6988;DHT22;3534;49.960;8.018;2022-10-17T13:23:24;26.80;99.90
6988;DHT22;3534;49.960;8.018;2022-10-17T13:26:13;26.90;99.90
6988;DHT22;3534;49.960;8.018;2022-10-17T13:28:40;27.00;99.90
6988;DHT22;3534;49.960;8.018;2022-10-17T13:31:28;27.10;99.90
6988;DHT22;3534;49.960;8.018;2022-10-17T13:33:57;27.20;99.90
6988;DHT22;3534;49.960;8.018;2022-10-17T13:36:24;27.10;99.90
6988;DHT22;3534;49.960;8.018;2022-10-17T13:38:52;27.10;99.90
6988;DHT22;3534;49.960;8.018;2022-10-17T13:41:24;27.20;99.90
6988;DHT22;3534;49.960;8.018;2022-10-17T13:43:52;27.40;99.90
6988;DHT22;3534;49.960;8.018;2022-10-17T13:46:25;27.50;99.90
6988;DHT22;3534;49.960;8.018;2022-10-17T13:48:52;27.50;99.90
6988;DHT22;3534;49.960;8.018;2022-10-17T13:51:19;27.50;99.90
6988;DHT22;3534;49.960;8.018;2022-10-17T13:53:46;27.60;99.90
6988;DHT22;3534;49.960;8.018;2022-10-17T13:56:19;27.60;99.90
6988;DHT22;3534;49.960;8.018;2022-10-17T13:58:48;27.60;99.90
6988;DHT22;3534;49.960;8.018;2022-10-17T14:01:16;27.50;99.90
6988;DHT22;3534;49.960;8.018;2022-10-17T14:03:44;27.30;99.90
6988;DHT22;3534;49.960;8.018;2022-10-17T14:06:15;27.10;99.90
6988;DHT22;3534;49.960;8.018;2022-10-17T14:08:49;26.80;99.90
6988;DHT22;3534;49.960;8.018;2022-10-17T14:11:23;26.60;99.90
6988;DHT22;3534;49.960;8.018;2022-10-17T14:13:51;26.50;99.90
6988;DHT22;3534;49.960;8.018;2022-10-17T14:16:19;26.40;99.90
6988;DHT22;3534;49.960;8.018;2022-10-17T14:18:48;26.40;99.90
6988;DHT22;3534;49.960;8.018;2022-10-17T14:21:20;26.40;99.90
6988;DHT22;3534;49.960;8.018;2022-10-17T14:23:47;26.40;99.90
6988;DHT22;3534;49.960;8.018;2022-10-17T14:26:17;26.30;99.90
6988;DHT22;3534;49.960;8.018;2022-10-17T14:28:48;26.20;99.90
6988;DHT22;3534;49.960;8.018;2022-10-17T14:31:24;26.10;99.90
6988;DHT22;3534;49.960;8.018;2022-10-17T14:33:54;25.90;99.90
6988;DHT22;3534;49.960;8.018;2022-10-17T14:36:30;25.80;99.90
6988;DHT22;3534;49.960;8.018;2022-10-17T14:38:58;25.60;99.90
6988;DHT22;3534;49.960;8.018;2022-10-17T14:41:27;25.60;99.90
6988;DHT22;3534;49.960;8.018;2022-10-17T14:43:59;25.50;99.90
6988;DHT22;3534;49.960;8.018;2022-10-17T14:46:27;25.70;99.90
6988;DHT22;3534;49.960;8.018;2022-10-17T14:48:56;25.90;99.90
6988;DHT22;3534;49.960;8.018;2022-10-17T14:51:24;26.20;99.90
6988;DHT22;3534;49.960;8.018;2022-10-17T14:54:03;26.50;99.90
6988;DHT22;3534;49.960;8.018;2022-10-17T14:56:36;26.80;99.90
6988;DHT22;3534;49.960;8.018;2022-10-17T14:59:06;27.00;99.90
6988;DHT22;3534;49.960;8.018;2022-10-17T15:01:34;27.10;99.90
6988;DHT22;3534;49.960;8.018;2022-10-17T15:04:01;27.20;99.90
6988;DHT22;3534;49.960;8.018;2022-10-17T15:06:30;27.30;99.90
6988;DHT22;3534;49.960;8.018;2022-10-17T15:08:57;27.40;99.90
6988;DHT22;3534;49.960;8.018;2022-10-17T15:11:24;27.40;99.90
6988;DHT22;3534;49.960;8.018;2022-10-17T15:13:51;27.30;99.90
6988;DHT22;3534;49.960;8.018;2022-10-17T15:16:21;27.20;99.90
6988;DHT22;3534;49.960;8.018;2022-10-17T15:18:48;26.90;99.90
6988;DHT22;3534;49.960;8.018;2022-10-17T15:21:17;26.70;99.90
6988;DHT22;3534;49.960;8.018;2022-10-17T15:23:44;26.50;99.90
6988;DHT22;3534;49.960;8.018;2022-10-17T15:26:15;26.30;99.90
6988;DHT22;3534;49.960;8.018;2022-10-17T15:28:43;26.10;99.90
6988;DHT22;3534;49.960;8.018;2022-10-17T15:31:12;25.90;99.90
6988;DHT22;3534;49.960;8.018;2022-10-17T15:33:41;25.70;99.90
6988;DHT22;3534;49.960;8.018;2022-10-17T15:36:23;25.60;99.90
6988;DHT22;3534;49.960;8.018;2022-10-17T15:38:51;25.40;99.90
6988;DHT22;3534;49.960;8.018;2022-10-17T15:41:19;25.30;99.90
6988;DHT22;3534;49.960;8.018;2022-10-17T15:43:47;25.10;99.90
6988;DHT22;3534;49.960;8.018;2022-10-17T15:46:17;24.90;99.90
6988;DHT22;3534;49.960;8.018;2022-10-17T15:48:47;24.80;99.90
6988;DHT22;3534;49.960;8.018;2022-10-17T15:51:13;24.70;99.90
6988;DHT22;3534;49.960;8.018;2022-10-17T15:53:40;24.70;99.90
6988;DHT22;3534;49.960;8.018;2022-10-17T15:58:40;24.50;99.90
6988;DHT22;3534;49.960;8.018;2022-10-17T16:01:10;24.40;99.90
6988;DHT22;3534;49.960;8.018;2022-10-17T16:03:41;24.30;99.90
6988;DHT22;3534;49.960;8.018;2022-10-17T16:06:12;24.30;99.90
6988;DHT22;3534;49.960;8.018;2022-10-17T16:08:39;24.20;99.90
6988;DHT22;3534;49.960;8.018;2022-10-17T16:11:10;23.90;99.90
6988;DHT22;3534;49.960;8.018;2022-10-17T16:13:40;23.90;99.90
6988;DHT22;3534;49.960;8.018;2022-10-17T16:16:08;23.80;99.90
6988;DHT22;3534;49.960;8.018;2022-10-17T16:18:35;23.70;99.90
6988;DHT22;3534;49.960;8.018;2022-10-17T16:21:02;23.60;99.90
6988;DHT22;3534;49.960;8.018;2022-10-17T16:23:30;23.60;99.90
6988;DHT22;3534;49.960;8.018;2022-10-17T16:25:56;23.50;99.90